Mile Branch, Mississippi
Current Conditions -  °F | °C
As of 8:53 PM on Wednesday 26 Nov 2014 (Local Time) from KMCB Reporting Station
Clear Clear  
Wind Chill: 55°   Ceiling: Unl
Heat Index: 55°   Visibility: 10mi
Dew Point: 40°   Wind: 5mph
Humidity: 57%   Direction: 280°W
Pressure: 30.21"   Gusts: NA
Location:  31.4031°N, 90.8369°W
Report Text: KMCB 270253Z AUTO 28004KT 10SM CLR 13/04 A3021 RMK AO2 SLP228 T01280044 53020
Loading
Personal Weather Stations






























Interactive Weather Map New forecast layout! Learn more

10-Day Weather Forecast

Advertisements
Track Severe Weather on mobile